sensor_id;sensor_type;location;lat;lon;timestamp;temperature;humidity
42187;DHT22;27858;51.414;0.018;2023-03-03T00:01:16;6.00;9.40
42187;DHT22;27858;51.414;0.018;2023-03-03T00:03:44;5.90;5.30
42187;DHT22;27858;51.414;0.018;2023-03-03T00:06:12;5.90;3.20
42187;DHT22;27858;51.414;0.018;2023-03-03T00:08:39;5.90;1.00
42187;DHT22;27858;51.414;0.018;2023-03-03T00:11:06;6.00;4.80
42187;DHT22;27858;51.414;0.018;2023-03-03T00:13:45;6.00;3.60
42187;DHT22;27858;51.414;0.018;2023-03-03T00:18:45;6.00;1.00
42187;DHT22;27858;51.414;0.018;2023-03-03T00:21:23;6.00;1.00
42187;DHT22;27858;51.414;0.018;2023-03-03T00:23:52;6.00;1.00
42187;DHT22;27858;51.414;0.018;2023-03-03T00:26:34;6.00;1.00
42187;DHT22;27858;51.414;0.018;2023-03-03T00:29:39;6.00;1.00
42187;DHT22;27858;51.414;0.018;2023-03-03T00:32:24;6.00;1.00
42187;DHT22;27858;51.414;0.018;2023-03-03T00:34:54;6.00;1.00
42187;DHT22;27858;51.414;0.018;2023-03-03T00:40:15;6.00;1.00
42187;DHT22;27858;51.414;0.018;2023-03-03T00:42:50;6.00;1.00
42187;DHT22;27858;51.414;0.018;2023-03-03T00:47:50;6.00;1.00
42187;DHT22;27858;51.414;0.018;2023-03-03T00:53:15;6.00;1.00
42187;DHT22;27858;51.414;0.018;2023-03-03T00:55:47;6.10;1.00
42187;DHT22;27858;51.414;0.018;2023-03-03T00:58:14;6.10;1.00
42187;DHT22;27858;51.414;0.018;2023-03-03T05:00:56;5.60;1.00
42187;DHT22;27858;51.414;0.018;2023-03-03T05:03:23;5.60;1.00
42187;DHT22;27858;51.414;0.018;2023-03-03T05:05:50;5.60;1.00
42187;DHT22;27858;51.414;0.018;2023-03-03T05:08:17;5.60;1.00
42187;DHT22;27858;51.414;0.018;2023-03-03T05:10:44;5.60;1.00
42187;DHT22;27858;51.414;0.018;2023-03-03T05:13:10;5.60;1.00
42187;DHT22;27858;51.414;0.018;2023-03-03T05:15:40;5.60;1.00
42187;DHT22;27858;51.414;0.018;2023-03-03T05:18:08;5.60;1.00
42187;DHT22;27858;51.414;0.018;2023-03-03T05:20:39;5.50;1.00
42187;DHT22;27858;51.414;0.018;2023-03-03T05:23:07;5.60;1.00
42187;DHT22;27858;51.414;0.018;2023-03-03T05:25:34;5.60;1.00
42187;DHT22;27858;51.414;0.018;2023-03-03T05:28:01;5.60;1.00
42187;DHT22;27858;51.414;0.018;2023-03-03T05:30:27;5.60;1.00
42187;DHT22;27858;51.414;0.018;2023-03-03T05:32:54;5.60;1.00
42187;DHT22;27858;51.414;0.018;2023-03-03T05:35:21;5.50;1.00
42187;DHT22;27858;51.414;0.018;2023-03-03T05:37:48;5.60;1.00
42187;DHT22;27858;51.414;0.018;2023-03-03T05:40:15;5.60;1.00
42187;DHT22;27858;51.414;0.018;2023-03-03T05:42:43;5.50;1.00
42187;DHT22;27858;51.414;0.018;2023-03-03T05:45:11;5.50;1.00
42187;DHT22;27858;51.414;0.018;2023-03-03T05:47:37;5.50;1.00
42187;DHT22;27858;51.414;0.018;2023-03-03T05:50:04;5.50;1.00
42187;DHT22;27858;51.414;0.018;2023-03-03T05:52:31;5.50;1.00
42187;DHT22;27858;51.414;0.018;2023-03-03T05:54:58;5.50;1.00
42187;DHT22;27858;51.414;0.018;2023-03-03T05:57:25;5.50;1.00
42187;DHT22;27858;51.414;0.018;2023-03-03T05:59:51;5.50;1.00
42187;DHT22;27858;51.414;0.018;2023-03-03T06:02:18;5.40;1.00
42187;DHT22;27858;51.414;0.018;2023-03-03T06:04:45;5.40;1.00
42187;DHT22;27858;51.414;0.018;2023-03-03T06:07:12;5.40;1.00
42187;DHT22;27858;51.414;0.018;2023-03-03T06:09:39;5.40;1.00
42187;DHT22;27858;51.414;0.018;2023-03-03T06:12:06;5.40;1.00
42187;DHT22;27858;51.414;0.018;2023-03-03T06:14:32;5.50;1.00
42187;DHT22;27858;51.414;0.018;2023-03-03T06:16:59;5.40;1.00
42187;DHT22;27858;51.414;0.018;2023-03-03T06:19:26;5.40;1.00
42187;DHT22;27858;51.414;0.018;2023-03-03T06:21:53;5.40;1.00
42187;DHT22;27858;51.414;0.018;2023-03-03T06:24:19;5.50;1.00
42187;DHT22;27858;51.414;0.018;2023-03-03T06:26:46;5.40;1.00
42187;DHT22;27858;51.414;0.018;2023-03-03T06:29:13;5.50;1.00
42187;DHT22;27858;51.414;0.018;2023-03-03T06:31:41;5.50;1.00
42187;DHT22;27858;51.414;0.018;2023-03-03T06:34:09;5.50;1.00
42187;DHT22;27858;51.414;0.018;2023-03-03T06:36:36;5.50;1.00
42187;DHT22;27858;51.414;0.018;2023-03-03T06:39:03;5.50;1.00
42187;DHT22;27858;51.414;0.018;2023-03-03T06:41:29;5.50;1.00
42187;DHT22;27858;51.414;0.018;2023-03-03T06:43:56;5.40;1.00
42187;DHT22;27858;51.414;0.018;2023-03-03T06:46:23;5.50;1.00
42187;DHT22;27858;51.414;0.018;2023-03-03T06:48:50;5.50;1.00
42187;DHT22;27858;51.414;0.018;2023-03-03T06:53:49;5.50;1.00
42187;DHT22;27858;51.414;0.018;2023-03-03T06:56:17;5.50;2.10
42187;DHT22;27858;51.414;0.018;2023-03-03T06:58:44;5.50;2.40
42187;DHT22;27858;51.414;0.018;2023-03-03T07:01:15;5.50;4.10
42187;DHT22;27858;51.414;0.018;2023-03-03T07:03:42;5.50;2.10
42187;DHT22;27858;51.414;0.018;2023-03-03T07:06:23;5.50;2.80
42187;DHT22;27858;51.414;0.018;2023-03-03T07:08:53;5.50;3.90
42187;DHT22;27858;51.414;0.018;2023-03-03T07:11:22;5.60;4.30
42187;DHT22;27858;51.414;0.018;2023-03-03T07:13:51;5.50;5.60
42187;DHT22;27858;51.414;0.018;2023-03-03T07:16:21;5.60;9.40
42187;DHT22;27858;51.414;0.018;2023-03-03T07:18:58;5.60;7.70
42187;DHT22;27858;51.414;0.018;2023-03-03T07:21:33;5.60;7.40
42187;DHT22;27858;51.414;0.018;2023-03-03T07:24:09;5.60;3.50
42187;DHT22;27858;51.414;0.018;2023-03-03T07:26:41;5.60;2.80
42187;DHT22;27858;51.414;0.018;2023-03-03T07:29:28;5.60;3.10
42187;DHT22;27858;51.414;0.018;2023-03-03T07:32:00;5.70;1.10
42187;DHT22;27858;51.414;0.018;2023-03-03T07:34:37;5.70;1.00
42187;DHT22;27858;51.414;0.018;2023-03-03T07:37:13;5.70;1.00
42187;DHT22;27858;51.414;0.018;2023-03-03T07:39:44;5.70;1.00
42187;DHT22;27858;51.414;0.018;2023-03-03T07:42:19;5.80;1.00
42187;DHT22;27858;51.414;0.018;2023-03-03T07:44:50;5.70;1.00
42187;DHT22;27858;51.414;0.018;2023-03-03T07:47:19;5.70;1.00
42187;DHT22;27858;51.414;0.018;2023-03-03T07:49:48;5.80;1.00
42187;DHT22;27858;51.414;0.018;2023-03-03T07:52:41;5.80;1.00
42187;DHT22;27858;51.414;0.018;2023-03-03T07:55:32;5.80;1.00
42187;DHT22;27858;51.414;0.018;2023-03-03T08:03:34;5.90;1.00
42187;DHT22;27858;51.414;0.018;2023-03-03T08:06:23;5.90;1.00
42187;DHT22;27858;51.414;0.018;2023-03-03T08:11:48;6.00;1.00
42187;DHT22;27858;51.414;0.018;2023-03-03T08:14:30;6.00;1.00
42187;DHT22;27858;51.414;0.018;2023-03-03T08:16:59;6.00;1.00
42187;DHT22;27858;51.414;0.018;2023-03-03T08:19:29;6.00;1.00
42187;DHT22;27858;51.414;0.018;2023-03-03T08:22:01;6.00;1.00
42187;DHT22;27858;51.414;0.018;2023-03-03T08:24:32;6.10;1.00
42187;DHT22;27858;51.414;0.018;2023-03-03T08:26:59;6.10;1.00
42187;DHT22;27858;51.414;0.018;2023-03-03T08:29:25;6.10;1.00
42187;DHT22;27858;51.414;0.018;2023-03-03T08:31:53;6.10;1.00
42187;DHT22;27858;51.414;0.018;2023-03-03T08:34:19;6.10;1.00
42187;DHT22;27858;51.414;0.018;2023-03-03T08:36:46;6.20;1.00
42187;DHT22;27858;51.414;0.018;2023-03-03T08:39:13;6.20;1.00
42187;DHT22;27858;51.414;0.018;2023-03-03T08:41:40;6.30;1.00
42187;DHT22;27858;51.414;0.018;2023-03-03T08:44:10;6.40;1.00
42187;DHT22;27858;51.414;0.018;2023-03-03T08:46:36;6.40;1.00
42187;DHT22;27858;51.414;0.018;2023-03-03T08:49:04;6.50;1.00
42187;DHT22;27858;51.414;0.018;2023-03-03T08:51:31;6.60;1.00
42187;DHT22;27858;51.414;0.018;2023-03-03T08:54:00;6.60;99.90
42187;DHT22;27858;51.414;0.018;2023-03-03T08:56:27;6.70;99.90
42187;DHT22;27858;51.414;0.018;2023-03-03T08:58:53;6.70;99.90
42187;DHT22;27858;51.414;0.018;2023-03-03T09:01:30;6.70;99.90
42187;DHT22;27858;51.414;0.018;2023-03-03T09:03:58;6.80;99.90
42187;DHT22;27858;51.414;0.018;2023-03-03T09:06:24;6.80;99.90
42187;DHT22;27858;51.414;0.018;2023-03-03T09:08:52;6.80;99.90
42187;DHT22;27858;51.414;0.018;2023-03-03T09:11:26;6.90;99.90
42187;DHT22;27858;51.414;0.018;2023-03-03T09:14:03;6.90;99.90
42187;DHT22;27858;51.414;0.018;2023-03-03T09:16:37;7.00;99.90
42187;DHT22;27858;51.414;0.018;2023-03-03T09:19:22;7.10;99.90
42187;DHT22;27858;51.414;0.018;2023-03-03T09:21:52;7.10;99.90
42187;DHT22;27858;51.414;0.018;2023-03-03T09:24:28;7.20;99.90
42187;DHT22;27858;51.414;0.018;2023-03-03T09:26:56;7.20;99.90
42187;DHT22;27858;51.414;0.018;2023-03-03T09:29:36;7.30;99.90
42187;DHT22;27858;51.414;0.018;2023-03-03T09:32:36;7.30;99.90
42187;DHT22;27858;51.414;0.018;2023-03-03T09:37:52;7.40;99.90
42187;DHT22;27858;51.414;0.018;2023-03-03T09:46:31;7.60;99.90
42187;DHT22;27858;51.414;0.018;2023-03-03T09:52:31;7.60;99.90
42187;DHT22;27858;51.414;0.018;2023-03-03T09:57:13;7.70;99.90
42187;DHT22;27858;51.414;0.018;2023-03-03T10:05:25;7.80;99.90
42187;DHT22;27858;51.414;0.018;2023-03-03T10:08:20;7.80;99.90
42187;DHT22;27858;51.414;0.018;2023-03-03T10:11:18;7.80;99.90
42187;DHT22;27858;51.414;0.018;2023-03-03T10:17:01;7.80;99.90
42187;DHT22;27858;51.414;0.018;2023-03-03T10:19:38;7.80;99.90
42187;DHT22;27858;51.414;0.018;2023-03-03T10:22:12;7.80;99.90
42187;DHT22;27858;51.414;0.018;2023-03-03T10:32:59;7.70;99.90
42187;DHT22;27858;51.414;0.018;2023-03-03T10:51:54;7.70;99.90
42187;DHT22;27858;51.414;0.018;2023-03-03T10:57:06;7.80;99.90
42187;DHT22;27858;51.414;0.018;2023-03-03T10:59:58;7.90;99.90
42187;DHT22;27858;51.414;0.018;2023-03-03T11:02:32;7.90;99.90
42187;DHT22;27858;51.414;0.018;2023-03-03T11:05:39;8.00;99.90
42187;DHT22;27858;51.414;0.018;2023-03-03T11:08:35;8.00;99.90
42187;DHT22;27858;51.414;0.018;2023-03-03T11:11:17;8.20;99.90
42187;DHT22;27858;51.414;0.018;2023-03-03T11:14:07;8.20;99.90
42187;DHT22;27858;51.414;0.018;2023-03-03T11:22:12;8.40;99.90
42187;DHT22;27858;51.414;0.018;2023-03-03T11:27:55;8.50;99.90
42187;DHT22;27858;51.414;0.018;2023-03-03T11:30:34;8.50;99.90
42187;DHT22;27858;51.414;0.018;2023-03-03T11:36:22;8.50;99.90
42187;DHT22;27858;51.414;0.018;2023-03-03T11:39:07;8.40;99.90
42187;DHT22;27858;51.414;0.018;2023-03-03T11:41:41;8.40;99.90
42187;DHT22;27858;51.414;0.018;2023-03-03T11:44:40;8.40;99.90
42187;DHT22;27858;51.414;0.018;2023-03-03T11:50:03;8.50;99.90
42187;DHT22;27858;51.414;0.018;2023-03-03T11:52:39;8.50;99.90
42187;DHT22;27858;51.414;0.018;2023-03-03T11:55:16;8.50;99.90
42187;DHT22;27858;51.414;0.018;2023-03-03T12:03:42;8.40;99.90
42187;DHT22;27858;51.414;0.018;2023-03-03T12:11:50;8.20;99.90
42187;DHT22;27858;51.414;0.018;2023-03-03T12:26:43;8.20;99.90
42187;DHT22;27858;51.414;0.018;2023-03-03T12:29:21;8.20;99.90
42187;DHT22;27858;51.414;0.018;2023-03-03T12:32:06;8.20;99.90
42187;DHT22;27858;51.414;0.018;2023-03-03T12:35:17;8.20;99.90
42187;DHT22;27858;51.414;0.018;2023-03-03T12:40:33;8.10;99.90
42187;DHT22;27858;51.414;0.018;2023-03-03T12:49:10;8.20;99.90
42187;DHT22;27858;51.414;0.018;2023-03-03T12:51:56;8.30;99.90
42187;DHT22;27858;51.414;0.018;2023-03-03T12:59:44;8.40;99.90
42187;DHT22;27858;51.414;0.018;2023-03-03T13:02:38;8.60;99.90
42187;DHT22;27858;51.414;0.018;2023-03-03T13:07:49;8.70;99.90
42187;DHT22;27858;51.414;0.018;2023-03-03T13:16:04;8.70;99.90
42187;DHT22;27858;51.414;0.018;2023-03-03T13:18:54;8.70;99.90
42187;DHT22;27858;51.414;0.018;2023-03-03T13:21:46;8.70;99.90
42187;DHT22;27858;51.414;0.018;2023-03-03T13:27:13;8.60;99.90
42187;DHT22;27858;51.414;0.018;2023-03-03T13:29:44;8.60;99.90
42187;DHT22;27858;51.414;0.018;2023-03-03T13:32:22;8.60;99.90
42187;DHT22;27858;51.414;0.018;2023-03-03T13:35:29;8.60;99.90
42187;DHT22;27858;51.414;0.018;2023-03-03T13:37:52;8.60;99.90
42187;DHT22;27858;51.414;0.018;2023-03-03T13:40:25;8.50;99.90
42187;DHT22;27858;51.414;0.018;2023-03-03T13:50:59;8.60;99.90
42187;DHT22;27858;51.414;0.018;2023-03-03T13:53:40;8.50;99.90
42187;DHT22;27858;51.414;0.018;2023-03-03T13:56:19;8.50;99.90
42187;DHT22;27858;51.414;0.018;2023-03-03T13:59:17;8.40;99.90
42187;DHT22;27858;51.414;0.018;2023-03-03T14:05:03;8.40;99.90
42187;DHT22;27858;51.414;0.018;2023-03-03T14:10:18;8.20;99.90
42187;DHT22;27858;51.414;0.018;2023-03-03T14:13:13;8.20;99.90
42187;DHT22;27858;51.414;0.018;2023-03-03T14:16:04;8.10;99.90
42187;DHT22;27858;51.414;0.018;2023-03-03T14:18:38;8.10;99.90
42187;DHT22;27858;51.414;0.018;2023-03-03T14:23:56;8.30;99.90
42187;DHT22;27858;51.414;0.018;2023-03-03T14:26:25;8.30;99.90
42187;DHT22;27858;51.414;0.018;2023-03-03T14:29:10;8.30;99.90
42187;DHT22;27858;51.414;0.018;2023-03-03T14:31:42;8.30;99.90
42187;DHT22;27858;51.414;0.018;2023-03-03T14:36:50;8.40;99.90
42187;DHT22;27858;51.414;0.018;2023-03-03T14:39:37;8.50;99.90
42187;DHT22;27858;51.414;0.018;2023-03-03T14:42:12;8.40;99.90
42187;DHT22;27858;51.414;0.018;2023-03-03T14:44:53;8.50;99.90
42187;DHT22;27858;51.414;0.018;2023-03-03T14:47:25;8.50;99.90
42187;DHT22;27858;51.414;0.018;2023-03-03T14:49:55;8.50;99.90
42187;DHT22;27858;51.414;0.018;2023-03-03T14:52:28;8.50;99.90
42187;DHT22;27858;51.414;0.018;2023-03-03T14:54:57;8.50;99.90
42187;DHT22;27858;51.414;0.018;2023-03-03T14:57:38;8.50;99.90
42187;DHT22;27858;51.414;0.018;2023-03-03T15:05:51;8.40;99.90
42187;DHT22;27858;51.414;0.018;2023-03-03T15:08:35;8.30;99.90
42187;DHT22;27858;51.414;0.018;2023-03-03T15:13:40;8.20;99.90
42187;DHT22;27858;51.414;0.018;2023-03-03T15:16:23;8.10;99.90
42187;DHT22;27858;51.414;0.018;2023-03-03T15:21:30;8.00;99.90
42187;DHT22;27858;51.414;0.018;2023-03-03T15:24:00;8.00;99.90
42187;DHT22;27858;51.414;0.018;2023-03-03T15:29:28;8.00;99.90
42187;DHT22;27858;51.414;0.018;2023-03-03T15:34:45;8.00;99.90
42187;DHT22;27858;51.414;0.018;2023-03-03T15:40:28;8.00;99.90
42187;DHT22;27858;51.414;0.018;2023-03-03T15:43:10;8.00;99.90
42187;DHT22;27858;51.414;0.018;2023-03-03T15:54:55;8.00;99.90
42187;DHT22;27858;51.414;0.018;2023-03-03T16:00:38;8.00;99.90
42187;DHT22;27858;51.414;0.018;2023-03-03T16:03:16;8.00;99.90
42187;DHT22;27858;51.414;0.018;2023-03-03T16:05:52;8.10;99.90
42187;DHT22;27858;51.414;0.018;2023-03-03T16:11:32;8.00;99.90
42187;DHT22;27858;51.414;0.018;2023-03-03T16:16:54;8.00;99.90
42187;DHT22;27858;51.414;0.018;2023-03-03T16:28:49;7.90;99.90
42187;DHT22;27858;51.414;0.018;2023-03-03T16:31:44;7.80;99.90
42187;DHT22;27858;51.414;0.018;2023-03-03T16:37:35;7.80;99.90
42187;DHT22;27858;51.414;0.018;2023-03-03T16:51:55;7.80;99.90
42187;DHT22;27858;51.414;0.018;2023-03-03T17:00:11;7.80;99.90
42187;DHT22;27858;51.414;0.018;2023-03-03T17:05:59;7.70;99.90
42187;DHT22;27858;51.414;0.018;2023-03-03T17:16:49;7.70;99.90
42187;DHT22;27858;51.414;0.018;2023-03-03T17:25:01;7.70;99.90
42187;DHT22;27858;51.414;0.018;2023-03-03T17:30:47;7.60;99.90
42187;DHT22;27858;51.414;0.018;2023-03-03T17:42:23;7.60;99.90
42187;DHT22;27858;51.414;0.018;2023-03-03T17:45:32;7.60;99.90
42187;DHT22;27858;51.414;0.018;2023-03-03T17:59:28;7.50;99.90
42187;DHT22;27858;51.414;0.018;2023-03-03T18:02:38;7.50;99.90
42187;DHT22;27858;51.414;0.018;2023-03-03T18:08:17;7.50;99.90
42187;DHT22;27858;51.414;0.018;2023-03-03T18:11:14;7.50;99.90
42187;DHT22;27858;51.414;0.018;2023-03-03T18:22:47;7.30;99.90
42187;DHT22;27858;51.414;0.018;2023-03-03T18:25:16;7.40;99.90
42187;DHT22;27858;51.414;0.018;2023-03-03T18:30:50;7.40;99.90
42187;DHT22;27858;51.414;0.018;2023-03-03T18:38:54;7.30;99.90
42187;DHT22;27858;51.414;0.018;2023-03-03T18:41:32;7.40;99.90
42187;DHT22;27858;51.414;0.018;2023-03-03T18:44:31;7.40;99.90
42187;DHT22;27858;51.414;0.018;2023-03-03T18:46:59;7.40;99.90
42187;DHT22;27858;51.414;0.018;2023-03-03T18:56:03;7.30;99.90
42187;DHT22;27858;51.414;0.018;2023-03-03T18:58:39;7.30;99.90
42187;DHT22;27858;51.414;0.018;2023-03-03T19:03:54;7.30;99.90
42187;DHT22;27858;51.414;0.018;2023-03-03T19:06:29;7.30;99.90
42187;DHT22;27858;51.414;0.018;2023-03-03T19:08:58;7.30;99.90
42187;DHT22;27858;51.414;0.018;2023-03-03T19:11:30;7.30;99.90
42187;DHT22;27858;51.414;0.018;2023-03-03T19:14:18;7.30;99.90
42187;DHT22;27858;51.414;0.018;2023-03-03T19:20:10;7.30;99.90
42187;DHT22;27858;51.414;0.018;2023-03-03T19:23:19;7.30;99.90
42187;DHT22;27858;51.414;0.018;2023-03-03T19:25:39;7.30;99.90
42187;DHT22;27858;51.414;0.018;2023-03-03T19:28:34;7.40;99.90
42187;DHT22;27858;51.414;0.018;2023-03-03T19:31:35;7.30;99.90
42187;DHT22;27858;51.414;0.018;2023-03-03T19:39:49;7.40;99.90
42187;DHT22;27858;51.414;0.018;2023-03-03T19:42:43;7.30;99.90
42187;DHT22;27858;51.414;0.018;2023-03-03T19:45:26;7.30;99.90
42187;DHT22;27858;51.414;0.018;2023-03-03T20:02:21;7.40;99.90
42187;DHT22;27858;51.414;0.018;2023-03-03T20:08:09;7.30;99.90
42187;DHT22;27858;51.414;0.018;2023-03-03T20:10:46;7.30;99.90
42187;DHT22;27858;51.414;0.018;2023-03-03T20:20:48;7.30;99.90
42187;DHT22;27858;51.414;0.018;2023-03-03T20:29:28;7.20;99.90
42187;DHT22;27858;51.414;0.018;2023-03-03T20:45:29;7.20;99.90
42187;DHT22;27858;51.414;0.018;2023-03-03T20:48:15;7.20;99.90
42187;DHT22;27858;51.414;0.018;2023-03-03T21:01:33;7.10;99.90
42187;DHT22;27858;51.414;0.018;2023-03-03T21:04:25;7.00;99.90
42187;DHT22;27858;51.414;0.018;2023-03-03T21:06:52;7.00;99.90
42187;DHT22;27858;51.414;0.018;2023-03-03T21:09:40;7.00;99.90
42187;DHT22;27858;51.414;0.018;2023-03-03T21:12:30;7.00;99.90
42187;DHT22;27858;51.414;0.018;2023-03-03T21:15:07;7.00;99.90
42187;DHT22;27858;51.414;0.018;2023-03-03T21:17:37;7.00;99.90
42187;DHT22;27858;51.414;0.018;2023-03-03T21:20:38;7.00;99.90
42187;DHT22;27858;51.414;0.018;2023-03-03T21:23:08;7.00;99.90
42187;DHT22;27858;51.414;0.018;2023-03-03T21:31:02;7.00;99.90
42187;DHT22;27858;51.414;0.018;2023-03-03T21:33:44;7.00;99.90
42187;DHT22;27858;51.414;0.018;2023-03-03T21:38:43;7.00;99.90
42187;DHT22;27858;51.414;0.018;2023-03-03T21:41:13;7.00;99.90
42187;DHT22;27858;51.414;0.018;2023-03-03T21:43:42;7.00;99.90
42187;DHT22;27858;51.414;0.018;2023-03-03T21:46:10;7.00;99.90
42187;DHT22;27858;51.414;0.018;2023-03-03T21:48:41;6.90;99.90
42187;DHT22;27858;51.414;0.018;2023-03-03T21:51:09;6.90;99.90
42187;DHT22;27858;51.414;0.018;2023-03-03T21:53:36;7.00;99.90
42187;DHT22;27858;51.414;0.018;2023-03-03T21:56:03;6.90;99.90
42187;DHT22;27858;51.414;0.018;2023-03-03T21:58:30;6.90;99.90
42187;DHT22;27858;51.414;0.018;2023-03-03T22:00:57;6.90;99.90
42187;DHT22;27858;51.414;0.018;2023-03-03T22:03:23;6.90;99.90
42187;DHT22;27858;51.414;0.018;2023-03-03T22:05:50;6.90;99.90
42187;DHT22;27858;51.414;0.018;2023-03-03T22:08:19;6.90;99.90
42187;DHT22;27858;51.414;0.018;2023-03-03T22:10:49;7.00;99.90
42187;DHT22;27858;51.414;0.018;2023-03-03T22:13:19;6.90;99.90
42187;DHT22;27858;51.414;0.018;2023-03-03T22:15:47;6.90;99.90
42187;DHT22;27858;51.414;0.018;2023-03-03T22:18:15;6.90;99.90
42187;DHT22;27858;51.414;0.018;2023-03-03T22:20:47;6.90;99.90
42187;DHT22;27858;51.414;0.018;2023-03-03T22:23:14;6.90;99.90
42187;DHT22;27858;51.414;0.018;2023-03-03T22:25:41;6.90;99.90
42187;DHT22;27858;51.414;0.018;2023-03-03T22:28:08;6.90;99.90
42187;DHT22;27858;51.414;0.018;2023-03-03T22:30:35;6.90;99.90
42187;DHT22;27858;51.414;0.018;2023-03-03T22:33:02;6.90;99.90
42187;DHT22;27858;51.414;0.018;2023-03-03T22:35:29;6.80;99.90
42187;DHT22;27858;51.414;0.018;2023-03-03T22:37:56;6.80;99.90
42187;DHT22;27858;51.414;0.018;2023-03-03T22:40:23;6.80;99.90
42187;DHT22;27858;51.414;0.018;2023-03-03T22:42:50;6.80;99.90
42187;DHT22;27858;51.414;0.018;2023-03-03T22:45:17;6.80;99.90
42187;DHT22;27858;51.414;0.018;2023-03-03T22:47:43;6.80;99.90
42187;DHT22;27858;51.414;0.018;2023-03-03T22:50:12;6.80;99.90
42187;DHT22;27858;51.414;0.018;2023-03-03T22:52:40;6.80;99.90
42187;DHT22;27858;51.414;0.018;2023-03-03T22:55:07;6.80;99.90
42187;DHT22;27858;51.414;0.018;2023-03-03T22:57:34;6.80;99.90
42187;DHT22;27858;51.414;0.018;2023-03-03T23:00:01;6.70;99.90
42187;DHT22;27858;51.414;0.018;2023-03-03T23:02:28;6.70;99.90
42187;DHT22;27858;51.414;0.018;2023-03-03T23:04:55;6.70;99.90
42187;DHT22;27858;51.414;0.018;2023-03-03T23:07:27;6.70;99.90
42187;DHT22;27858;51.414;0.018;2023-03-03T23:09:54;6.70;99.90
42187;DHT22;27858;51.414;0.018;2023-03-03T23:12:22;6.70;99.90
42187;DHT22;27858;51.414;0.018;2023-03-03T23:14:49;6.70;99.90
42187;DHT22;27858;51.414;0.018;2023-03-03T23:17:16;6.70;99.90
42187;DHT22;27858;51.414;0.018;2023-03-03T23:19:43;6.70;99.90
42187;DHT22;27858;51.414;0.018;2023-03-03T23:22:15;6.70;99.90
42187;DHT22;27858;51.414;0.018;2023-03-03T23:24:42;6.70;99.90
42187;DHT22;27858;51.414;0.018;2023-03-03T23:27:10;6.70;99.90
42187;DHT22;27858;51.414;0.018;2023-03-03T23:29:37;6.70;99.90
42187;DHT22;27858;51.414;0.018;2023-03-03T23:32:04;6.70;99.90
42187;DHT22;27858;51.414;0.018;2023-03-03T23:34:31;6.70;99.90
42187;DHT22;27858;51.414;0.018;2023-03-03T23:36:58;6.70;99.90
42187;DHT22;27858;51.414;0.018;2023-03-03T23:39:25;6.60;99.90
42187;DHT22;27858;51.414;0.018;2023-03-03T23:41:52;6.70;99.90
42187;DHT22;27858;51.414;0.018;2023-03-03T23:44:18;6.70;99.90
42187;DHT22;27858;51.414;0.018;2023-03-03T23:46:45;6.70;99.90
42187;DHT22;27858;51.414;0.018;2023-03-03T23:49:12;6.70;99.90
42187;DHT22;27858;51.414;0.018;2023-03-03T23:51:38;6.70;99.90
42187;DHT22;27858;51.414;0.018;2023-03-03T23:54:05;6.60;99.90
42187;DHT22;27858;51.414;0.018;2023-03-03T23:56:32;6.60;99.90
42187;DHT22;27858;51.414;0.018;2023-03-03T23:58:59;6.60;99.90
